sensor_id;sensor_type;location;lat;lon;timestamp;P1;durP1;ratioP1;P2;durP2;ratioP2
13933;SDS011;7039;52.168;9.866;2023-05-10T00:01:25;3.93;;;2.63;;
13933;SDS011;7039;52.168;9.866;2023-05-10T00:03:51;5.50;;;2.80;;
13933;SDS011;7039;52.168;9.866;2023-05-10T00:06:18;5.60;;;3.20;;
13933;SDS011;7039;52.168;9.866;2023-05-10T00:08:45;5.27;;;2.87;;
13933;SDS011;7039;52.168;9.866;2023-05-10T00:11:11;7.83;;;3.00;;
13933;SDS011;7039;52.168;9.866;2023-05-10T00:13:39;5.93;;;2.80;;
13933;SDS011;7039;52.168;9.866;2023-05-10T00:16:06;5.10;;;2.70;;
13933;SDS011;7039;52.168;9.866;2023-05-10T00:18:32;7.90;;;2.80;;
13933;SDS011;7039;52.168;9.866;2023-05-10T00:20:59;7.30;;;2.80;;
13933;SDS011;7039;52.168;9.866;2023-05-10T00:23:25;5.23;;;3.10;;
13933;SDS011;7039;52.168;9.866;2023-05-10T00:25:52;3.97;;;2.67;;
13933;SDS011;7039;52.168;9.866;2023-05-10T00:28:18;5.87;;;3.10;;
13933;SDS011;7039;52.168;9.866;2023-05-10T00:30:46;3.63;;;3.07;;
13933;SDS011;7039;52.168;9.866;2023-05-10T00:33:12;8.13;;;3.53;;
13933;SDS011;7039;52.168;9.866;2023-05-10T00:35:39;3.70;;;2.97;;
13933;SDS011;7039;52.168;9.866;2023-05-10T00:38:06;4.57;;;3.13;;
13933;SDS011;7039;52.168;9.866;2023-05-10T00:40:32;4.57;;;3.30;;
13933;SDS011;7039;52.168;9.866;2023-05-10T00:42:59;3.20;;;2.80;;
13933;SDS011;7039;52.168;9.866;2023-05-10T00:45:26;4.60;;;3.10;;
13933;SDS011;7039;52.168;9.866;2023-05-10T00:47:54;6.00;;;3.30;;
13933;SDS011;7039;52.168;9.866;2023-05-10T00:50:21;4.23;;;2.60;;
13933;SDS011;7039;52.168;9.866;2023-05-10T00:52:48;5.30;;;3.03;;
13933;SDS011;7039;52.168;9.866;2023-05-10T00:55:15;6.67;;;3.13;;
13933;SDS011;7039;52.168;9.866;2023-05-10T00:57:41;3.40;;;2.80;;
13933;SDS011;7039;52.168;9.866;2023-05-10T01:00:09;5.27;;;2.93;;
13933;SDS011;7039;52.168;9.866;2023-05-10T01:02:36;7.90;;;3.70;;
13933;SDS011;7039;52.168;9.866;2023-05-10T01:05:05;9.13;;;3.23;;
13933;SDS011;7039;52.168;9.866;2023-05-10T01:07:32;5.53;;;3.07;;
13933;SDS011;7039;52.168;9.866;2023-05-10T01:09:58;5.40;;;3.20;;
13933;SDS011;7039;52.168;9.866;2023-05-10T01:12:25;3.93;;;3.20;;
13933;SDS011;7039;52.168;9.866;2023-05-10T01:14:52;4.33;;;3.00;;
13933;SDS011;7039;52.168;9.866;2023-05-10T01:17:19;6.97;;;3.50;;
13933;SDS011;7039;52.168;9.866;2023-05-10T01:19:47;6.93;;;3.30;;
13933;SDS011;7039;52.168;9.866;2023-05-10T01:22:19;4.67;;;3.00;;
13933;SDS011;7039;52.168;9.866;2023-05-10T01:25:14;4.70;;;3.47;;
13933;SDS011;7039;52.168;9.866;2023-05-10T01:28:07;6.47;;;3.33;;
13933;SDS011;7039;52.168;9.866;2023-05-10T01:30:55;6.20;;;3.30;;
13933;SDS011;7039;52.168;9.866;2023-05-10T01:33:36;3.80;;;3.03;;
13933;SDS011;7039;52.168;9.866;2023-05-10T01:36:08;4.37;;;3.03;;
13933;SDS011;7039;52.168;9.866;2023-05-10T01:38:42;4.33;;;3.30;;
13933;SDS011;7039;52.168;9.866;2023-05-10T01:41:16;5.63;;;3.63;;
13933;SDS011;7039;52.168;9.866;2023-05-10T01:43:48;7.30;;;3.67;;
13933;SDS011;7039;52.168;9.866;2023-05-10T01:46:20;9.60;;;4.23;;
13933;SDS011;7039;52.168;9.866;2023-05-10T01:48:54;8.50;;;3.37;;
13933;SDS011;7039;52.168;9.866;2023-05-10T01:51:23;4.83;;;3.67;;
13933;SDS011;7039;52.168;9.866;2023-05-10T01:53:56;7.80;;;3.40;;
13933;SDS011;7039;52.168;9.866;2023-05-10T01:56:26;7.97;;;3.10;;
13933;SDS011;7039;52.168;9.866;2023-05-10T01:58:54;3.87;;;3.33;;
13933;SDS011;7039;52.168;9.866;2023-05-10T02:01:23;9.33;;;3.53;;
13933;SDS011;7039;52.168;9.866;2023-05-10T02:03:54;5.77;;;3.20;;
13933;SDS011;7039;52.168;9.866;2023-05-10T02:06:21;6.30;;;3.10;;
13933;SDS011;7039;52.168;9.866;2023-05-10T02:08:50;5.47;;;3.13;;
13933;SDS011;7039;52.168;9.866;2023-05-10T02:11:18;5.40;;;3.60;;
13933;SDS011;7039;52.168;9.866;2023-05-10T02:13:47;5.50;;;3.50;;
13933;SDS011;7039;52.168;9.866;2023-05-10T02:16:15;4.00;;;3.20;;
13933;SDS011;7039;52.168;9.866;2023-05-10T02:18:44;6.43;;;3.60;;
13933;SDS011;7039;52.168;9.866;2023-05-10T02:21:14;5.37;;;3.27;;
13933;SDS011;7039;52.168;9.866;2023-05-10T02:23:42;5.67;;;3.50;;
13933;SDS011;7039;52.168;9.866;2023-05-10T02:26:09;7.83;;;3.60;;
13933;SDS011;7039;52.168;9.866;2023-05-10T02:28:38;5.33;;;3.53;;
13933;SDS011;7039;52.168;9.866;2023-05-10T02:31:06;8.63;;;3.07;;
13933;SDS011;7039;52.168;9.866;2023-05-10T02:33:34;4.53;;;3.60;;
13933;SDS011;7039;52.168;9.866;2023-05-10T02:36:01;5.33;;;3.80;;
13933;SDS011;7039;52.168;9.866;2023-05-10T02:38:30;7.50;;;3.47;;
13933;SDS011;7039;52.168;9.866;2023-05-10T02:40:59;5.90;;;4.03;;
13933;SDS011;7039;52.168;9.866;2023-05-10T02:43:26;5.23;;;3.13;;
13933;SDS011;7039;52.168;9.866;2023-05-10T02:45:56;8.33;;;4.13;;
13933;SDS011;7039;52.168;9.866;2023-05-10T02:48:23;4.67;;;3.50;;
13933;SDS011;7039;52.168;9.866;2023-05-10T02:50:50;5.97;;;3.27;;
13933;SDS011;7039;52.168;9.866;2023-05-10T02:53:18;5.17;;;3.63;;
13933;SDS011;7039;52.168;9.866;2023-05-10T02:55:59;5.20;;;3.70;;
13933;SDS011;7039;52.168;9.866;2023-05-10T02:58:28;4.53;;;3.53;;
13933;SDS011;7039;52.168;9.866;2023-05-10T03:00:55;4.73;;;3.50;;
13933;SDS011;7039;52.168;9.866;2023-05-10T03:03:21;6.77;;;3.30;;
13933;SDS011;7039;52.168;9.866;2023-05-10T03:05:48;11.70;;;4.13;;
13933;SDS011;7039;52.168;9.866;2023-05-10T03:08:14;4.17;;;3.43;;
13933;SDS011;7039;52.168;9.866;2023-05-10T03:10:41;3.50;;;3.20;;
13933;SDS011;7039;52.168;9.866;2023-05-10T03:13:16;4.07;;;3.20;;
13933;SDS011;7039;52.168;9.866;2023-05-10T03:15:55;11.57;;;3.67;;
13933;SDS011;7039;52.168;9.866;2023-05-10T03:18:28;4.10;;;3.47;;
13933;SDS011;7039;52.168;9.866;2023-05-10T03:20:59;7.07;;;3.67;;
13933;SDS011;7039;52.168;9.866;2023-05-10T03:23:33;8.20;;;3.70;;
13933;SDS011;7039;52.168;9.866;2023-05-10T03:26:01;6.67;;;3.90;;
13933;SDS011;7039;52.168;9.866;2023-05-10T03:28:32;3.50;;;3.13;;
13933;SDS011;7039;52.168;9.866;2023-05-10T03:31:00;3.97;;;3.50;;
13933;SDS011;7039;52.168;9.866;2023-05-10T03:33:28;9.27;;;4.77;;
13933;SDS011;7039;52.168;9.866;2023-05-10T03:35:55;5.03;;;3.60;;
13933;SDS011;7039;52.168;9.866;2023-05-10T03:38:21;6.83;;;4.03;;
13933;SDS011;7039;52.168;9.866;2023-05-10T03:40:48;6.27;;;3.90;;
13933;SDS011;7039;52.168;9.866;2023-05-10T03:43:14;6.17;;;3.53;;
13933;SDS011;7039;52.168;9.866;2023-05-10T03:45:42;6.77;;;4.13;;
13933;SDS011;7039;52.168;9.866;2023-05-10T03:48:08;4.70;;;3.90;;
13933;SDS011;7039;52.168;9.866;2023-05-10T03:50:35;4.60;;;4.07;;
13933;SDS011;7039;52.168;9.866;2023-05-10T03:53:01;7.57;;;3.90;;
13933;SDS011;7039;52.168;9.866;2023-05-10T03:55:28;7.50;;;4.47;;
13933;SDS011;7039;52.168;9.866;2023-05-10T03:57:54;6.97;;;4.30;;
13933;SDS011;7039;52.168;9.866;2023-05-10T04:00:21;5.20;;;3.77;;
13933;SDS011;7039;52.168;9.866;2023-05-10T04:02:49;5.20;;;4.07;;
13933;SDS011;7039;52.168;9.866;2023-05-10T04:05:15;5.93;;;4.40;;
13933;SDS011;7039;52.168;9.866;2023-05-10T04:07:42;5.30;;;4.00;;
13933;SDS011;7039;52.168;9.866;2023-05-10T04:10:09;7.90;;;4.77;;
13933;SDS011;7039;52.168;9.866;2023-05-10T04:12:36;7.40;;;4.23;;
13933;SDS011;7039;52.168;9.866;2023-05-10T04:15:02;6.87;;;4.93;;
13933;SDS011;7039;52.168;9.866;2023-05-10T04:17:29;8.73;;;4.73;;
13933;SDS011;7039;52.168;9.866;2023-05-10T04:19:57;8.10;;;4.77;;
13933;SDS011;7039;52.168;9.866;2023-05-10T04:22:24;6.30;;;5.13;;
13933;SDS011;7039;52.168;9.866;2023-05-10T04:24:50;6.83;;;5.00;;
13933;SDS011;7039;52.168;9.866;2023-05-10T04:27:17;5.53;;;4.87;;
13933;SDS011;7039;52.168;9.866;2023-05-10T04:29:43;6.23;;;4.97;;
13933;SDS011;7039;52.168;9.866;2023-05-10T04:32:10;7.20;;;5.00;;
13933;SDS011;7039;52.168;9.866;2023-05-10T04:34:36;9.90;;;5.47;;
13933;SDS011;7039;52.168;9.866;2023-05-10T04:37:04;7.33;;;4.60;;
13933;SDS011;7039;52.168;9.866;2023-05-10T04:39:32;5.60;;;4.80;;
13933;SDS011;7039;52.168;9.866;2023-05-10T04:41:58;7.97;;;4.37;;
13933;SDS011;7039;52.168;9.866;2023-05-10T04:44:25;6.60;;;4.70;;
13933;SDS011;7039;52.168;9.866;2023-05-10T04:46:51;9.80;;;5.03;;
13933;SDS011;7039;52.168;9.866;2023-05-10T04:49:18;6.27;;;4.60;;
13933;SDS011;7039;52.168;9.866;2023-05-10T04:51:44;7.77;;;4.70;;
13933;SDS011;7039;52.168;9.866;2023-05-10T04:54:12;7.63;;;4.93;;
13933;SDS011;7039;52.168;9.866;2023-05-10T04:56:39;6.73;;;4.50;;
13933;SDS011;7039;52.168;9.866;2023-05-10T04:59:05;9.17;;;5.10;;
13933;SDS011;7039;52.168;9.866;2023-05-10T05:01:32;8.37;;;5.60;;
13933;SDS011;7039;52.168;9.866;2023-05-10T05:03:58;7.73;;;5.20;;
13933;SDS011;7039;52.168;9.866;2023-05-10T05:06:25;8.47;;;5.30;;
13933;SDS011;7039;52.168;9.866;2023-05-10T05:08:52;12.13;;;5.03;;
13933;SDS011;7039;52.168;9.866;2023-05-10T05:11:20;6.50;;;4.77;;
13933;SDS011;7039;52.168;9.866;2023-05-10T05:13:46;5.77;;;4.37;;
13933;SDS011;7039;52.168;9.866;2023-05-10T05:16:13;6.93;;;4.37;;
13933;SDS011;7039;52.168;9.866;2023-05-10T05:18:40;6.60;;;4.70;;
13933;SDS011;7039;52.168;9.866;2023-05-10T05:21:13;6.00;;;4.50;;
13933;SDS011;7039;52.168;9.866;2023-05-10T05:23:40;8.27;;;5.33;;
13933;SDS011;7039;52.168;9.866;2023-05-10T05:26:06;9.90;;;5.07;;
13933;SDS011;7039;52.168;9.866;2023-05-10T05:28:34;7.37;;;4.70;;
13933;SDS011;7039;52.168;9.866;2023-05-10T05:31:02;7.37;;;4.77;;
13933;SDS011;7039;52.168;9.866;2023-05-10T05:33:28;6.80;;;5.20;;
13933;SDS011;7039;52.168;9.866;2023-05-10T05:35:55;7.73;;;4.90;;
13933;SDS011;7039;52.168;9.866;2023-05-10T05:38:21;5.17;;;4.57;;
13933;SDS011;7039;52.168;9.866;2023-05-10T05:40:48;5.20;;;4.70;;
13933;SDS011;7039;52.168;9.866;2023-05-10T05:43:15;8.30;;;5.53;;
13933;SDS011;7039;52.168;9.866;2023-05-10T05:45:42;9.47;;;5.77;;
13933;SDS011;7039;52.168;9.866;2023-05-10T05:48:09;8.43;;;4.33;;
13933;SDS011;7039;52.168;9.866;2023-05-10T05:50:36;9.57;;;4.53;;
13933;SDS011;7039;52.168;9.866;2023-05-10T05:53:02;7.47;;;5.07;;
13933;SDS011;7039;52.168;9.866;2023-05-10T05:55:33;8.17;;;4.70;;
13933;SDS011;7039;52.168;9.866;2023-05-10T05:57:59;6.63;;;5.10;;
13933;SDS011;7039;52.168;9.866;2023-05-10T06:00:26;8.50;;;5.23;;
13933;SDS011;7039;52.168;9.866;2023-05-10T06:02:54;6.60;;;5.30;;
13933;SDS011;7039;52.168;9.866;2023-05-10T06:05:21;8.90;;;5.33;;
13933;SDS011;7039;52.168;9.866;2023-05-10T06:07:47;7.10;;;5.53;;
13933;SDS011;7039;52.168;9.866;2023-05-10T06:10:14;9.37;;;5.37;;
13933;SDS011;7039;52.168;9.866;2023-05-10T06:12:41;12.23;;;5.30;;
13933;SDS011;7039;52.168;9.866;2023-05-10T06:15:08;8.80;;;5.07;;
13933;SDS011;7039;52.168;9.866;2023-05-10T06:17:35;9.70;;;5.00;;
13933;SDS011;7039;52.168;9.866;2023-05-10T06:20:05;6.87;;;5.20;;
13933;SDS011;7039;52.168;9.866;2023-05-10T06:22:33;6.00;;;5.27;;
13933;SDS011;7039;52.168;9.866;2023-05-10T06:24:59;6.77;;;5.03;;
13933;SDS011;7039;52.168;9.866;2023-05-10T06:27:26;6.27;;;5.50;;
13933;SDS011;7039;52.168;9.866;2023-05-10T06:29:52;6.47;;;5.47;;
13933;SDS011;7039;52.168;9.866;2023-05-10T06:32:19;8.07;;;5.13;;
13933;SDS011;7039;52.168;9.866;2023-05-10T06:34:45;8.53;;;4.87;;
13933;SDS011;7039;52.168;9.866;2023-05-10T06:37:13;6.40;;;5.40;;
13933;SDS011;7039;52.168;9.866;2023-05-10T06:39:39;6.70;;;5.20;;
13933;SDS011;7039;52.168;9.866;2023-05-10T06:42:06;6.50;;;4.70;;
13933;SDS011;7039;52.168;9.866;2023-05-10T06:44:32;7.07;;;4.80;;
13933;SDS011;7039;52.168;9.866;2023-05-10T06:46:59;5.63;;;4.50;;
13933;SDS011;7039;52.168;9.866;2023-05-10T06:49:25;5.47;;;4.77;;
13933;SDS011;7039;52.168;9.866;2023-05-10T06:51:52;6.60;;;5.23;;
13933;SDS011;7039;52.168;9.866;2023-05-10T06:54:19;5.30;;;4.80;;
13933;SDS011;7039;52.168;9.866;2023-05-10T06:56:46;6.83;;;4.53;;
13933;SDS011;7039;52.168;9.866;2023-05-10T06:59:12;5.60;;;4.60;;
13933;SDS011;7039;52.168;9.866;2023-05-10T07:01:40;5.23;;;4.50;;
13933;SDS011;7039;52.168;9.866;2023-05-10T07:04:06;7.00;;;4.20;;
13933;SDS011;7039;52.168;9.866;2023-05-10T07:06:33;8.73;;;5.20;;
13933;SDS011;7039;52.168;9.866;2023-05-10T07:08:59;5.63;;;4.33;;
13933;SDS011;7039;52.168;9.866;2023-05-10T07:11:27;5.10;;;4.20;;
13933;SDS011;7039;52.168;9.866;2023-05-10T07:13:54;5.83;;;4.23;;
13933;SDS011;7039;52.168;9.866;2023-05-10T07:16:20;6.93;;;4.23;;
13933;SDS011;7039;52.168;9.866;2023-05-10T07:18:47;8.13;;;4.83;;
13933;SDS011;7039;52.168;9.866;2023-05-10T07:21:15;5.27;;;4.00;;
13933;SDS011;7039;52.168;9.866;2023-05-10T07:23:41;5.10;;;4.20;;
13933;SDS011;7039;52.168;9.866;2023-05-10T07:26:08;5.03;;;4.03;;
13933;SDS011;7039;52.168;9.866;2023-05-10T07:28:36;6.57;;;4.27;;
13933;SDS011;7039;52.168;9.866;2023-05-10T07:31:04;4.97;;;3.93;;
13933;SDS011;7039;52.168;9.866;2023-05-10T07:33:30;6.70;;;3.93;;
13933;SDS011;7039;52.168;9.866;2023-05-10T07:35:57;4.07;;;3.53;;
13933;SDS011;7039;52.168;9.866;2023-05-10T07:38:23;4.33;;;3.50;;
13933;SDS011;7039;52.168;9.866;2023-05-10T07:40:50;3.33;;;2.93;;
13933;SDS011;7039;52.168;9.866;2023-05-10T07:43:16;4.20;;;3.33;;
13933;SDS011;7039;52.168;9.866;2023-05-10T07:45:44;3.50;;;3.20;;
13933;SDS011;7039;52.168;9.866;2023-05-10T07:48:10;3.30;;;3.00;;
13933;SDS011;7039;52.168;9.866;2023-05-10T07:50:37;3.93;;;3.30;;
13933;SDS011;7039;52.168;9.866;2023-05-10T07:53:03;3.83;;;3.10;;
13933;SDS011;7039;52.168;9.866;2023-05-10T07:55:30;4.13;;;3.63;;
13933;SDS011;7039;52.168;9.866;2023-05-10T07:57:56;5.77;;;3.27;;
13933;SDS011;7039;52.168;9.866;2023-05-10T08:00:25;4.03;;;2.73;;
13933;SDS011;7039;52.168;9.866;2023-05-10T08:02:53;3.97;;;3.03;;
13933;SDS011;7039;52.168;9.866;2023-05-10T08:05:20;3.70;;;3.07;;
13933;SDS011;7039;52.168;9.866;2023-05-10T08:07:46;3.30;;;3.00;;
13933;SDS011;7039;52.168;9.866;2023-05-10T08:10:13;3.93;;;3.20;;
13933;SDS011;7039;52.168;9.866;2023-05-10T08:12:39;3.40;;;2.63;;
13933;SDS011;7039;52.168;9.866;2023-05-10T08:15:06;2.83;;;2.63;;
13933;SDS011;7039;52.168;9.866;2023-05-10T08:17:34;3.73;;;3.30;;
13933;SDS011;7039;52.168;9.866;2023-05-10T08:20:02;4.80;;;2.83;;
13933;SDS011;7039;52.168;9.866;2023-05-10T08:22:28;2.90;;;1.70;;
13933;SDS011;7039;52.168;9.866;2023-05-10T08:24:55;1.77;;;1.60;;
13933;SDS011;7039;52.168;9.866;2023-05-10T08:27:21;2.93;;;1.53;;
13933;SDS011;7039;52.168;9.866;2023-05-10T08:29:48;1.67;;;1.43;;
13933;SDS011;7039;52.168;9.866;2023-05-10T08:32:14;3.27;;;1.40;;
13933;SDS011;7039;52.168;9.866;2023-05-10T08:34:41;7.20;;;2.17;;
13933;SDS011;7039;52.168;9.866;2023-05-10T08:37:08;1.40;;;1.30;;
13933;SDS011;7039;52.168;9.866;2023-05-10T08:39:37;1.10;;;1.00;;
13933;SDS011;7039;52.168;9.866;2023-05-10T08:42:04;0.80;;;0.80;;
13933;SDS011;7039;52.168;9.866;2023-05-10T08:44:34;2.13;;;0.83;;
13933;SDS011;7039;52.168;9.866;2023-05-10T08:47:02;1.10;;;0.97;;
13933;SDS011;7039;52.168;9.866;2023-05-10T08:49:31;1.33;;;1.07;;
13933;SDS011;7039;52.168;9.866;2023-05-10T08:51:59;1.50;;;0.50;;
13933;SDS011;7039;52.168;9.866;2023-05-10T08:54:30;1.93;;;0.70;;
13933;SDS011;7039;52.168;9.866;2023-05-10T08:56:57;1.33;;;0.60;;
13933;SDS011;7039;52.168;9.866;2023-05-10T08:59:24;0.60;;;0.60;;
13933;SDS011;7039;52.168;9.866;2023-05-10T09:01:51;0.50;;;0.50;;
13933;SDS011;7039;52.168;9.866;2023-05-10T09:04:20;0.50;;;0.50;;
13933;SDS011;7039;52.168;9.866;2023-05-10T09:06:47;0.57;;;0.47;;
13933;SDS011;7039;52.168;9.866;2023-05-10T09:09:13;0.40;;;0.40;;
13933;SDS011;7039;52.168;9.866;2023-05-10T09:11:42;0.50;;;0.50;;
13933;SDS011;7039;52.168;9.866;2023-05-10T09:14:09;0.60;;;0.57;;
13933;SDS011;7039;52.168;9.866;2023-05-10T09:16:37;0.50;;;0.50;;
13933;SDS011;7039;52.168;9.866;2023-05-10T09:19:03;1.33;;;0.50;;
13933;SDS011;7039;52.168;9.866;2023-05-10T09:21:30;0.50;;;0.50;;
13933;SDS011;7039;52.168;9.866;2023-05-10T09:23:57;2.47;;;0.70;;
13933;SDS011;7039;52.168;9.866;2023-05-10T09:26:29;0.97;;;0.70;;
13933;SDS011;7039;52.168;9.866;2023-05-10T09:28:57;0.50;;;0.50;;
13933;SDS011;7039;52.168;9.866;2023-05-10T09:31:25;0.80;;;0.80;;
13933;SDS011;7039;52.168;9.866;2023-05-10T09:34:09;0.70;;;0.60;;
13933;SDS011;7039;52.168;9.866;2023-05-10T09:36:36;1.07;;;0.60;;
13933;SDS011;7039;52.168;9.866;2023-05-10T09:39:02;2.30;;;0.63;;
13933;SDS011;7039;52.168;9.866;2023-05-10T09:41:29;0.60;;;0.60;;
13933;SDS011;7039;52.168;9.866;2023-05-10T09:43:56;2.30;;;0.80;;
13933;SDS011;7039;52.168;9.866;2023-05-10T09:46:23;0.87;;;0.87;;
13933;SDS011;7039;52.168;9.866;2023-05-10T09:48:49;1.23;;;0.90;;
13933;SDS011;7039;52.168;9.866;2023-05-10T09:51:19;0.83;;;0.83;;
13933;SDS011;7039;52.168;9.866;2023-05-10T09:53:46;1.20;;;1.10;;
13933;SDS011;7039;52.168;9.866;2023-05-10T09:56:18;2.83;;;1.10;;
13933;SDS011;7039;52.168;9.866;2023-05-10T09:59:04;3.37;;;1.20;;
13933;SDS011;7039;52.168;9.866;2023-05-10T10:01:31;1.73;;;1.00;;
13933;SDS011;7039;52.168;9.866;2023-05-10T10:03:57;1.20;;;1.00;;
13933;SDS011;7039;52.168;9.866;2023-05-10T10:06:24;1.40;;;1.03;;
13933;SDS011;7039;52.168;9.866;2023-05-10T10:08:51;2.67;;;1.40;;
13933;SDS011;7039;52.168;9.866;2023-05-10T10:11:20;1.97;;;1.50;;
13933;SDS011;7039;52.168;9.866;2023-05-10T10:13:46;2.20;;;1.60;;
13933;SDS011;7039;52.168;9.866;2023-05-10T10:16:14;1.80;;;1.57;;
13933;SDS011;7039;52.168;9.866;2023-05-10T10:18:41;2.47;;;1.90;;
13933;SDS011;7039;52.168;9.866;2023-05-10T10:21:08;2.07;;;1.70;;
13933;SDS011;7039;52.168;9.866;2023-05-10T10:23:35;1.90;;;1.80;;
13933;SDS011;7039;52.168;9.866;2023-05-10T10:26:01;1.93;;;1.60;;
13933;SDS011;7039;52.168;9.866;2023-05-10T10:28:32;2.23;;;1.80;;
13933;SDS011;7039;52.168;9.866;2023-05-10T10:31:12;3.13;;;2.00;;
13933;SDS011;7039;52.168;9.866;2023-05-10T10:33:51;2.03;;;1.70;;
13933;SDS011;7039;52.168;9.866;2023-05-10T10:36:23;1.90;;;1.80;;
13933;SDS011;7039;52.168;9.866;2023-05-10T10:38:55;3.53;;;1.90;;
13933;SDS011;7039;52.168;9.866;2023-05-10T10:41:32;3.37;;;2.10;;
13933;SDS011;7039;52.168;9.866;2023-05-10T10:47:00;2.70;;;2.00;;
13933;SDS011;7039;52.168;9.866;2023-05-10T10:49:33;5.83;;;2.30;;
13933;SDS011;7039;52.168;9.866;2023-05-10T10:52:23;2.20;;;1.97;;
13933;SDS011;7039;52.168;9.866;2023-05-10T10:54:54;3.57;;;2.20;;
13933;SDS011;7039;52.168;9.866;2023-05-10T10:57:25;3.53;;;2.23;;
13933;SDS011;7039;52.168;9.866;2023-05-10T10:59:54;3.97;;;2.43;;
13933;SDS011;7039;52.168;9.866;2023-05-10T11:02:49;3.10;;;2.50;;
13933;SDS011;7039;52.168;9.866;2023-05-10T11:05:23;5.33;;;2.50;;
13933;SDS011;7039;52.168;9.866;2023-05-10T11:08:14;3.20;;;2.40;;
13933;SDS011;7039;52.168;9.866;2023-05-10T11:10:49;3.07;;;2.07;;
13933;SDS011;7039;52.168;9.866;2023-05-10T11:13:29;3.23;;;2.37;;
13933;SDS011;7039;52.168;9.866;2023-05-10T11:15:57;3.43;;;1.90;;
13933;SDS011;7039;52.168;9.866;2023-05-10T11:18:25;2.80;;;2.10;;
13933;SDS011;7039;52.168;9.866;2023-05-10T11:20:55;4.03;;;2.57;;
13933;SDS011;7039;52.168;9.866;2023-05-10T11:23:23;3.57;;;2.80;;
13933;SDS011;7039;52.168;9.866;2023-05-10T11:25:49;5.90;;;4.07;;
13933;SDS011;7039;52.168;9.866;2023-05-10T11:28:16;6.20;;;4.07;;
13933;SDS011;7039;52.168;9.866;2023-05-10T11:30:44;3.03;;;2.20;;
13933;SDS011;7039;52.168;9.866;2023-05-10T11:33:15;4.47;;;2.83;;
13933;SDS011;7039;52.168;9.866;2023-05-10T11:35:43;15.83;;;7.43;;
13933;SDS011;7039;52.168;9.866;2023-05-10T11:38:10;3.07;;;2.23;;
13933;SDS011;7039;52.168;9.866;2023-05-10T11:40:39;4.20;;;2.83;;
13933;SDS011;7039;52.168;9.866;2023-05-10T11:43:06;2.17;;;1.90;;
13933;SDS011;7039;52.168;9.866;2023-05-10T11:45:35;2.90;;;2.00;;
13933;SDS011;7039;52.168;9.866;2023-05-10T11:48:02;2.40;;;2.20;;
13933;SDS011;7039;52.168;9.866;2023-05-10T11:50:29;2.77;;;1.97;;
13933;SDS011;7039;52.168;9.866;2023-05-10T11:52:57;4.20;;;2.27;;
13933;SDS011;7039;52.168;9.866;2023-05-10T11:55:24;2.67;;;2.30;;
13933;SDS011;7039;52.168;9.866;2023-05-10T11:57:51;3.73;;;2.33;;
13933;SDS011;7039;52.168;9.866;2023-05-10T12:00:18;2.80;;;2.00;;
13933;SDS011;7039;52.168;9.866;2023-05-10T12:02:45;2.43;;;1.97;;
13933;SDS011;7039;52.168;9.866;2023-05-10T12:05:11;5.90;;;2.30;;
13933;SDS011;7039;52.168;9.866;2023-05-10T12:07:38;4.00;;;2.00;;
13933;SDS011;7039;52.168;9.866;2023-05-10T12:10:07;3.80;;;2.20;;
13933;SDS011;7039;52.168;9.866;2023-05-10T12:12:36;5.73;;;4.00;;
13933;SDS011;7039;52.168;9.866;2023-05-10T12:15:04;9.30;;;7.37;;
13933;SDS011;7039;52.168;9.866;2023-05-10T12:17:32;4.53;;;2.80;;
13933;SDS011;7039;52.168;9.866;2023-05-10T12:19:59;4.87;;;2.50;;
13933;SDS011;7039;52.168;9.866;2023-05-10T12:22:38;2.70;;;2.10;;
13933;SDS011;7039;52.168;9.866;2023-05-10T12:25:07;2.40;;;2.20;;
13933;SDS011;7039;52.168;9.866;2023-05-10T12:27:34;6.23;;;2.70;;
13933;SDS011;7039;52.168;9.866;2023-05-10T12:30:01;5.33;;;3.60;;
13933;SDS011;7039;52.168;9.866;2023-05-10T12:32:37;8.70;;;3.77;;
13933;SDS011;7039;52.168;9.866;2023-05-10T12:35:04;6.90;;;3.17;;
13933;SDS011;7039;52.168;9.866;2023-05-10T12:37:30;4.63;;;2.50;;
13933;SDS011;7039;52.168;9.866;2023-05-10T12:40:00;3.70;;;2.50;;
13933;SDS011;7039;52.168;9.866;2023-05-10T12:42:28;3.30;;;2.33;;
13933;SDS011;7039;52.168;9.866;2023-05-10T12:44:56;3.00;;;2.37;;
13933;SDS011;7039;52.168;9.866;2023-05-10T12:47:23;2.90;;;2.60;;
13933;SDS011;7039;52.168;9.866;2023-05-10T12:49:49;3.73;;;2.63;;
13933;SDS011;7039;52.168;9.866;2023-05-10T12:52:16;3.87;;;2.50;;
13933;SDS011;7039;52.168;9.866;2023-05-10T12:54:42;5.90;;;2.80;;
13933;SDS011;7039;52.168;9.866;2023-05-10T12:57:09;5.40;;;2.30;;
13933;SDS011;7039;52.168;9.866;2023-05-10T12:59:37;3.13;;;2.40;;
13933;SDS011;7039;52.168;9.866;2023-05-10T13:02:03;5.47;;;2.30;;
13933;SDS011;7039;52.168;9.866;2023-05-10T13:04:30;3.70;;;2.50;;
13933;SDS011;7039;52.168;9.866;2023-05-10T13:06:56;3.37;;;2.20;;
13933;SDS011;7039;52.168;9.866;2023-05-10T13:09:23;2.47;;;2.00;;
13933;SDS011;7039;52.168;9.866;2023-05-10T13:11:50;2.87;;;2.10;;
13933;SDS011;7039;52.168;9.866;2023-05-10T13:14:18;3.67;;;2.10;;
13933;SDS011;7039;52.168;9.866;2023-05-10T13:16:46;4.20;;;2.00;;
13933;SDS011;7039;52.168;9.866;2023-05-10T13:19:13;3.07;;;1.83;;
13933;SDS011;7039;52.168;9.866;2023-05-10T13:21:40;5.33;;;2.07;;
13933;SDS011;7039;52.168;9.866;2023-05-10T13:24:07;2.53;;;1.57;;
13933;SDS011;7039;52.168;9.866;2023-05-10T13:26:33;3.37;;;1.80;;
13933;SDS011;7039;52.168;9.866;2023-05-10T13:29:01;4.30;;;3.57;;
13933;SDS011;7039;52.168;9.866;2023-05-10T13:31:27;3.93;;;2.37;;
13933;SDS011;7039;52.168;9.866;2023-05-10T13:33:55;4.90;;;2.10;;
13933;SDS011;7039;52.168;9.866;2023-05-10T13:36:22;2.07;;;1.60;;
13933;SDS011;7039;52.168;9.866;2023-05-10T13:38:48;1.97;;;1.70;;
13933;SDS011;7039;52.168;9.866;2023-05-10T13:41:15;3.73;;;2.23;;
13933;SDS011;7039;52.168;9.866;2023-05-10T13:43:41;2.27;;;1.93;;
13933;SDS011;7039;52.168;9.866;2023-05-10T13:46:08;2.63;;;1.83;;
13933;SDS011;7039;52.168;9.866;2023-05-10T13:48:34;2.27;;;1.80;;
13933;SDS011;7039;52.168;9.866;2023-05-10T13:51:03;3.00;;;2.30;;
13933;SDS011;7039;52.168;9.866;2023-05-10T13:53:29;2.97;;;2.13;;
13933;SDS011;7039;52.168;9.866;2023-05-10T13:55:56;2.63;;;2.20;;
13933;SDS011;7039;52.168;9.866;2023-05-10T13:58:22;4.60;;;2.47;;
13933;SDS011;7039;52.168;9.866;2023-05-10T14:00:49;2.83;;;2.43;;
13933;SDS011;7039;52.168;9.866;2023-05-10T14:03:15;3.97;;;2.47;;
13933;SDS011;7039;52.168;9.866;2023-05-10T14:05:41;2.73;;;2.03;;
13933;SDS011;7039;52.168;9.866;2023-05-10T14:08:11;6.83;;;2.80;;
13933;SDS011;7039;52.168;9.866;2023-05-10T14:10:38;4.60;;;2.60;;
13933;SDS011;7039;52.168;9.866;2023-05-10T14:13:05;4.70;;;2.23;;
13933;SDS011;7039;52.168;9.866;2023-05-10T14:15:32;2.90;;;2.60;;
13933;SDS011;7039;52.168;9.866;2023-05-10T14:17:59;2.73;;;2.53;;
13933;SDS011;7039;52.168;9.866;2023-05-10T14:20:26;3.33;;;2.80;;
13933;SDS011;7039;52.168;9.866;2023-05-10T14:22:52;3.67;;;2.40;;
13933;SDS011;7039;52.168;9.866;2023-05-10T14:25:20;4.87;;;2.70;;
13933;SDS011;7039;52.168;9.866;2023-05-10T14:27:47;3.80;;;2.60;;
13933;SDS011;7039;52.168;9.866;2023-05-10T14:30:13;4.13;;;2.70;;
13933;SDS011;7039;52.168;9.866;2023-05-10T14:32:40;5.83;;;2.43;;
13933;SDS011;7039;52.168;9.866;2023-05-10T14:35:07;4.13;;;3.10;;
13933;SDS011;7039;52.168;9.866;2023-05-10T14:37:34;3.00;;;2.70;;
13933;SDS011;7039;52.168;9.866;2023-05-10T14:40:00;4.23;;;3.00;;
13933;SDS011;7039;52.168;9.866;2023-05-10T14:42:30;3.70;;;3.03;;
13933;SDS011;7039;52.168;9.866;2023-05-10T14:44:57;4.33;;;2.67;;
13933;SDS011;7039;52.168;9.866;2023-05-10T14:47:23;5.90;;;2.30;;
13933;SDS011;7039;52.168;9.866;2023-05-10T14:49:50;4.47;;;2.70;;
13933;SDS011;7039;52.168;9.866;2023-05-10T14:52:16;5.33;;;3.00;;
13933;SDS011;7039;52.168;9.866;2023-05-10T14:54:43;4.60;;;3.00;;
13933;SDS011;7039;52.168;9.866;2023-05-10T14:57:10;3.13;;;2.60;;
13933;SDS011;7039;52.168;9.866;2023-05-10T14:59:37;4.13;;;2.40;;
13933;SDS011;7039;52.168;9.866;2023-05-10T15:02:04;3.83;;;2.50;;
13933;SDS011;7039;52.168;9.866;2023-05-10T15:04:33;4.23;;;2.23;;
13933;SDS011;7039;52.168;9.866;2023-05-10T15:06:59;4.10;;;2.37;;
13933;SDS011;7039;52.168;9.866;2023-05-10T15:09:26;3.03;;;2.37;;